createdAt,value
2022-12-10T00:00:48.666Z,29.50
2022-12-10T00:03:23.077Z,34.20
2022-12-10T00:05:55.346Z,32.80
2022-12-10T00:08:27.591Z,31.10
2022-12-10T00:10:59.956Z,37.90
2022-12-10T00:13:32.328Z,36.60
2022-12-10T00:16:05.415Z,37.30
2022-12-10T00:18:38.630Z,28.50
2022-12-10T00:21:12.771Z,39.00
2022-12-10T00:23:45.262Z,34.70
2022-12-10T00:26:19.766Z,32.80
2022-12-10T00:28:53.057Z,33.80
2022-12-10T00:31:28.936Z,39.10
2022-12-10T00:34:03.362Z,35.90
2022-12-10T00:36:39.080Z,40.90
2022-12-10T00:39:12.373Z,35.70
2022-12-10T00:41:44.852Z,35.30
2022-12-10T00:44:17.852Z,41.60
2022-12-10T00:46:50.345Z,39.80
2022-12-10T00:49:25.574Z,38.80
2022-12-10T00:51:57.861Z,41.20
2022-12-10T00:54:30.110Z,41.20
2022-12-10T00:57:02.352Z,37.50
2022-12-10T00:59:34.688Z,35.70
2022-12-10T01:02:07.051Z,36.60
2022-12-10T01:04:40.068Z,40.40
2022-12-10T01:07:12.313Z,35.00
2022-12-10T01:09:44.548Z,35.30
2022-12-10T01:12:16.800Z,33.40
2022-12-10T01:14:49.063Z,33.70
2022-12-10T01:17:22.499Z,37.20
2022-12-10T01:19:54.775Z,34.60
2022-12-10T01:22:27.019Z,32.30
2022-12-10T01:24:59.251Z,33.60
2022-12-10T01:27:31.863Z,34.00
2022-12-10T01:30:04.223Z,36.10
2022-12-10T01:32:36.489Z,32.70
2022-12-10T01:35:10.215Z,36.80
2022-12-10T01:37:42.530Z,33.50
2022-12-10T01:40:15.577Z,35.60
2022-12-10T01:42:47.938Z,36.90
2022-12-10T01:45:21.302Z,42.20
2022-12-10T01:47:53.555Z,35.50
2022-12-10T01:50:25.817Z,32.60
2022-12-10T01:52:58.140Z,36.70
2022-12-10T01:55:48.756Z,31.80
2022-12-10T01:58:22.636Z,33.70
2022-12-10T02:01:05.737Z,32.00
2022-12-10T02:03:46.330Z,27.60
2022-12-10T02:06:30.895Z,31.90
2022-12-10T02:09:11.287Z,31.40
2022-12-10T02:11:48.853Z,29.90
2022-12-10T02:14:29.210Z,33.50
2022-12-10T02:17:05.363Z,31.90
2022-12-10T02:19:55.934Z,28.20
2022-12-10T02:22:32.330Z,31.40
2022-12-10T02:25:07.464Z,27.90
2022-12-10T02:27:47.350Z,29.70
2022-12-10T02:30:19.952Z,30.00
2022-12-10T02:32:53.073Z,25.50
2022-12-10T02:35:29.553Z,26.80
2022-12-10T02:38:06.731Z,23.90
2022-12-10T02:40:42.119Z,25.10
2022-12-10T02:43:17.227Z,24.10
2022-12-10T02:45:51.355Z,25.40
2022-12-10T02:48:24.445Z,25.90
2022-12-10T02:50:56.787Z,25.00
2022-12-10T02:53:29.089Z,22.60
2022-12-10T02:56:14.846Z,20.70
2022-12-10T02:58:58.072Z,23.70
2022-12-10T03:01:42.760Z,21.70
2022-12-10T03:04:21.338Z,22.80
2022-12-10T03:07:00.619Z,24.60
2022-12-10T03:09:39.711Z,27.60
2022-12-10T03:12:19.339Z,24.00
2022-12-10T03:14:52.844Z,24.80
2022-12-10T03:17:25.175Z,22.10
2022-12-10T03:19:59.883Z,22.90
2022-12-10T03:22:34.708Z,23.90
2022-12-10T03:25:08.511Z,23.10
2022-12-10T03:27:42.214Z,22.70
2022-12-10T03:30:15.150Z,21.60
2022-12-10T03:32:48.697Z,24.20
2022-12-10T03:35:22.691Z,20.70
2022-12-10T03:37:55.786Z,22.20
2022-12-10T03:40:28.828Z,21.20
2022-12-10T03:43:01.052Z,24.90
2022-12-10T03:45:33.295Z,25.20
2022-12-10T03:48:06.010Z,22.70
2022-12-10T03:50:38.274Z,22.80
2022-12-10T03:53:10.507Z,21.80
2022-12-10T03:55:42.707Z,24.60
2022-12-10T03:58:20.214Z,31.00
2022-12-10T04:00:52.892Z,30.30
2022-12-10T04:03:25.416Z,33.30
2022-12-10T04:06:02.831Z,32.90
2022-12-10T04:08:35.167Z,31.40
2022-12-10T04:11:09.754Z,33.80
2022-12-10T04:14:00.541Z,38.10
2022-12-10T04:16:35.338Z,29.50
2022-12-10T04:19:10.294Z,33.60
2022-12-10T04:22:01.858Z,34.00
2022-12-10T04:24:53.759Z,31.70
2022-12-10T04:27:28.591Z,32.10
2022-12-10T04:30:02.046Z,30.20
2022-12-10T04:32:34.681Z,29.00
2022-12-10T04:35:08.623Z,26.10
2022-12-10T04:37:40.991Z,27.30
2022-12-10T04:40:14.923Z,25.50
2022-12-10T04:42:47.132Z,25.20
2022-12-10T04:45:19.687Z,25.20
2022-12-10T04:47:52.175Z,26.30
2022-12-10T04:50:24.511Z,25.70
2022-12-10T04:52:56.784Z,25.40
2022-12-10T04:55:29.034Z,25.80
2022-12-10T04:58:01.275Z,26.90
2022-12-10T05:00:33.475Z,24.00
2022-12-10T05:03:05.727Z,22.60
2022-12-10T05:05:39.215Z,24.20
2022-12-10T05:08:11.478Z,26.20
2022-12-10T05:10:43.816Z,25.60
2022-12-10T05:13:16.137Z,24.20
2022-12-10T05:15:48.391Z,22.10
2022-12-10T05:18:20.636Z,23.90
2022-12-10T05:20:52.897Z,26.50
2022-12-10T05:23:31.513Z,23.90
2022-12-10T05:26:09.310Z,23.60
2022-12-10T05:28:43.332Z,25.10
2022-12-10T05:31:18.010Z,24.30
2022-12-10T05:33:50.830Z,24.20
2022-12-10T05:36:24.654Z,24.00
2022-12-10T05:38:57.984Z,24.10
2022-12-10T05:41:32.153Z,24.30
2022-12-10T05:44:05.772Z,21.20
2022-12-10T05:46:38.409Z,23.60
2022-12-10T05:49:10.951Z,20.70
2022-12-10T05:51:43.506Z,24.40
2022-12-10T05:54:15.749Z,22.70
2022-12-10T05:56:47.991Z,23.20
2022-12-10T05:59:20.220Z,24.70
2022-12-10T06:01:52.426Z,22.70
2022-12-10T06:04:24.716Z,23.90
2022-12-10T06:06:57.133Z,24.50
2022-12-10T06:09:29.370Z,24.20
2022-12-10T06:12:01.651Z,24.60
2022-12-10T06:14:34.030Z,24.00
2022-12-10T06:17:06.244Z,24.80
2022-12-10T06:19:38.743Z,21.40
2022-12-10T06:22:11.020Z,30.00
2022-12-10T06:24:43.360Z,27.60
2022-12-10T06:27:15.691Z,26.00
2022-12-10T06:29:48.167Z,21.40
2022-12-10T06:32:20.425Z,25.40
2022-12-10T06:34:52.675Z,22.80
2022-12-10T06:37:25.142Z,23.40
2022-12-10T06:39:57.599Z,23.50
2022-12-10T06:42:29.860Z,27.80
2022-12-10T06:45:02.148Z,28.50
2022-12-10T06:47:36.076Z,24.50
2022-12-10T06:50:12.156Z,25.00
2022-12-10T06:52:44.494Z,22.30
2022-12-10T06:55:16.772Z,26.10
2022-12-10T06:57:49.057Z,24.40
2022-12-10T07:00:22.501Z,27.80
2022-12-10T07:02:54.812Z,24.20
2022-12-10T07:05:27.083Z,26.20
2022-12-10T07:07:59.356Z,25.00
2022-12-10T07:10:31.866Z,25.10
2022-12-10T07:13:04.280Z,23.00
2022-12-10T07:15:36.550Z,28.30
2022-12-10T07:18:08.894Z,28.20
2022-12-10T07:20:41.166Z,26.70
2022-12-10T07:23:13.459Z,23.40
2022-12-10T07:25:45.680Z,29.10
2022-12-10T07:28:18.059Z,23.10
2022-12-10T07:30:50.351Z,23.60
2022-12-10T07:33:22.579Z,24.80
2022-12-10T07:35:54.831Z,27.90
2022-12-10T07:38:27.375Z,25.60
2022-12-10T07:40:59.599Z,27.70
2022-12-10T07:43:32.040Z,27.20
2022-12-10T07:46:09.862Z,29.20
2022-12-10T07:48:43.679Z,27.20
2022-12-10T07:51:17.391Z,26.50
2022-12-10T07:53:49.727Z,23.00
2022-12-10T07:56:22.709Z,24.80
2022-12-10T07:58:55.908Z,27.10
2022-12-10T08:01:29.601Z,23.90
2022-12-10T08:04:02.113Z,24.50
2022-12-10T08:06:34.375Z,22.80
2022-12-10T08:09:06.672Z,25.10
2022-12-10T08:11:38.953Z,24.60
2022-12-10T08:14:11.186Z,26.50
2022-12-10T08:16:43.529Z,26.80
2022-12-10T08:19:21.433Z,25.20
2022-12-10T08:21:55.193Z,24.30
2022-12-10T08:24:27.410Z,24.40
2022-12-10T08:26:59.688Z,21.50
2022-12-10T08:29:31.955Z,27.90
2022-12-10T08:32:04.380Z,21.60
2022-12-10T08:34:36.695Z,24.10
2022-12-10T08:37:12.239Z,25.60
2022-12-10T08:42:15.775Z,31.90
2022-12-10T08:44:47.999Z,29.00
2022-12-10T08:47:20.285Z,30.20
2022-12-10T08:49:52.582Z,30.90
2022-12-10T08:52:24.930Z,29.80
2022-12-10T08:54:57.343Z,26.00
2022-12-10T08:57:29.605Z,28.10
2022-12-10T09:00:02.007Z,30.10
2022-12-10T09:02:34.428Z,28.90
2022-12-10T09:05:08.817Z,38.50
2022-12-10T09:07:41.132Z,26.30
2022-12-10T09:10:16.615Z,24.40
2022-12-10T09:12:48.888Z,27.40
2022-12-10T09:15:21.290Z,36.30
2022-12-10T09:17:53.506Z,29.30
2022-12-10T09:20:26.080Z,28.10
2022-12-10T09:22:58.365Z,25.70
2022-12-10T09:25:30.641Z,34.20
2022-12-10T09:28:02.937Z,25.80
2022-12-10T09:30:35.176Z,25.60
2022-12-10T09:33:07.550Z,28.50
2022-12-10T09:35:44.224Z,31.30
2022-12-10T09:38:16.925Z,31.20
2022-12-10T09:40:54.878Z,29.10
2022-12-10T09:43:35.291Z,34.60
2022-12-10T09:46:14.162Z,33.50
2022-12-10T09:48:55.742Z,25.90
2022-12-10T09:51:31.860Z,33.20
2022-12-10T09:54:06.757Z,32.50
2022-12-10T09:56:41.396Z,32.60
2022-12-10T09:59:21.389Z,34.70
2022-12-10T10:02:13.809Z,31.10
2022-12-10T10:04:46.279Z,31.20
2022-12-10T10:07:24.769Z,33.90
2022-12-10T10:10:02.201Z,32.50
2022-12-10T10:12:36.159Z,31.00
2022-12-10T10:15:18.898Z,34.60
2022-12-10T10:17:51.463Z,32.50
2022-12-10T10:20:24.292Z,29.30
2022-12-10T10:22:59.476Z,34.70
2022-12-10T10:25:32.394Z,40.20
2022-12-10T10:28:04.847Z,26.90
2022-12-10T10:30:37.392Z,28.40
2022-12-10T10:33:15.110Z,29.50
2022-12-10T10:35:50.285Z,30.80
2022-12-10T10:38:25.745Z,30.50
2022-12-10T10:41:01.252Z,36.10
2022-12-10T10:43:36.675Z,34.90
2022-12-10T10:46:15.928Z,33.60
2022-12-10T10:48:48.587Z,30.30
2022-12-10T10:51:24.599Z,30.50
2022-12-10T10:53:57.441Z,30.40
2022-12-10T10:56:34.911Z,30.00
2022-12-10T10:59:09.010Z,43.90
2022-12-10T11:01:52.877Z,30.10
2022-12-10T11:04:30.775Z,33.60
2022-12-10T11:07:06.855Z,31.70
2022-12-10T11:09:40.282Z,34.90
2022-12-10T11:12:31.579Z,33.80
2022-12-10T11:15:04.544Z,31.90
2022-12-10T11:17:37.420Z,43.20
2022-12-10T11:20:21.402Z,38.90
2022-12-10T11:22:56.501Z,31.60
2022-12-10T11:25:41.123Z,43.90
2022-12-10T11:28:33.387Z,35.50
2022-12-10T11:31:28.830Z,38.70
2022-12-10T11:34:11.354Z,35.70
2022-12-10T11:36:56.414Z,26.40
2022-12-10T11:39:53.730Z,34.60
2022-12-10T11:42:36.763Z,35.30
2022-12-10T11:45:17.746Z,42.00
2022-12-10T11:48:06.112Z,32.50
2022-12-10T11:50:44.987Z,32.80
2022-12-10T11:53:30.632Z,34.20
2022-12-10T11:56:15.994Z,30.20
2022-12-10T11:59:00.752Z,32.10
2022-12-10T12:01:43.987Z,39.50
2022-12-10T12:04:27.792Z,37.20
2022-12-10T12:07:13.925Z,30.70
2022-12-10T12:09:57.464Z,60.50
2022-12-10T12:12:43.850Z,29.00
2022-12-10T12:15:23.250Z,29.60
2022-12-10T12:18:00.954Z,25.90
2022-12-10T12:20:37.554Z,29.30
2022-12-10T12:23:17.680Z,36.20
2022-12-10T12:25:53.534Z,27.10
2022-12-10T12:28:32.603Z,31.20
2022-12-10T12:31:09.014Z,38.00
2022-12-10T12:33:47.469Z,22.10
2022-12-10T12:36:23.535Z,23.70
2022-12-10T12:39:01.833Z,20.50
2022-12-10T12:41:40.172Z,20.40
2022-12-10T12:44:21.244Z,27.90
2022-12-10T12:46:54.020Z,19.60
2022-12-10T12:49:31.620Z,32.90
2022-12-10T12:52:17.790Z,23.40
2022-12-10T12:57:32.873Z,19.30
2022-12-10T13:00:08.606Z,21.80
2022-12-10T13:02:54.752Z,25.10
2022-12-10T13:05:31.094Z,22.30
2022-12-10T13:08:32.583Z,22.40
2022-12-10T13:11:31.060Z,19.10
2022-12-10T13:14:19.304Z,19.70
2022-12-10T13:17:02.515Z,20.50
2022-12-10T13:19:35.515Z,19.50
2022-12-10T13:22:14.391Z,15.40
2022-12-10T13:25:07.598Z,26.90
2022-12-10T13:27:40.213Z,18.70
2022-12-10T13:30:38.911Z,15.30
2022-12-10T13:33:20.028Z,14.80
2022-12-10T13:36:08.959Z,21.90
2022-12-10T13:38:58.570Z,17.10
2022-12-10T13:41:52.840Z,20.40
2022-12-10T13:44:39.966Z,14.20
2022-12-10T13:50:21.315Z,15.70
2022-12-10T13:53:06.034Z,14.20
2022-12-10T13:55:41.694Z,20.00
2022-12-10T14:01:15.683Z,29.20
2022-12-10T14:04:07.942Z,21.80
2022-12-10T14:06:43.919Z,21.00
2022-12-10T14:09:22.099Z,32.90
2022-12-10T14:11:58.980Z,19.00
2022-12-10T14:14:35.960Z,18.00
2022-12-10T14:17:14.636Z,18.20
2022-12-10T14:19:50.650Z,15.50
2022-12-10T14:22:31.426Z,17.30
2022-12-10T14:25:08.620Z,16.90
2022-12-10T14:27:41.043Z,17.40
2022-12-10T14:30:22.776Z,32.60
2022-12-10T14:32:59.484Z,17.00
2022-12-10T14:35:32.868Z,20.60
2022-12-10T14:38:05.148Z,20.40
2022-12-10T14:40:45.263Z,89.00
2022-12-10T14:43:21.200Z,27.80
2022-12-10T14:45:57.990Z,25.30
2022-12-10T14:48:31.204Z,23.30
2022-12-10T14:51:14.212Z,22.20
2022-12-10T14:53:47.160Z,20.20
2022-12-10T14:56:26.456Z,18.00
2022-12-10T14:59:05.494Z,16.70
2022-12-10T15:01:41.437Z,17.70
2022-12-10T15:07:01.997Z,20.20
2022-12-10T15:09:34.474Z,20.00
2022-12-10T15:12:07.511Z,19.50
2022-12-10T15:14:40.165Z,20.10
2022-12-10T15:17:40.258Z,17.00
2022-12-10T15:20:30.388Z,27.10
2022-12-10T15:23:19.679Z,27.50
2022-12-10T15:26:00.176Z,17.70
2022-12-10T15:28:34.461Z,19.60
2022-12-10T15:31:20.757Z,16.30
2022-12-10T15:33:55.749Z,28.60
2022-12-10T15:36:36.152Z,26.00
2022-12-10T15:39:18.118Z,23.60
2022-12-10T15:41:51.901Z,28.80
2022-12-10T15:44:30.412Z,28.60
2022-12-10T15:47:08.147Z,31.50
2022-12-10T15:49:40.494Z,20.80
2022-12-10T15:52:16.386Z,38.50
2022-12-10T15:57:22.747Z,30.40
2022-12-10T15:59:57.820Z,31.00
2022-12-10T16:02:37.900Z,34.70
2022-12-10T16:05:16.763Z,28.10
2022-12-10T16:07:51.682Z,33.10
2022-12-10T16:10:25.712Z,35.30
2022-12-10T16:13:04.011Z,33.30
2022-12-10T16:15:42.466Z,29.40
2022-12-10T16:18:14.993Z,38.90
2022-12-10T16:20:47.882Z,35.10
2022-12-10T16:23:20.160Z,33.20
2022-12-10T16:25:52.375Z,32.70
2022-12-10T16:28:26.382Z,31.50
2022-12-10T16:31:01.317Z,47.70
2022-12-10T16:33:33.576Z,38.70
2022-12-10T16:36:06.045Z,25.80
2022-12-10T16:38:38.366Z,27.10
2022-12-10T16:41:18.548Z,47.20
2022-12-10T16:43:50.810Z,31.60
2022-12-10T16:46:23.067Z,27.00
2022-12-10T16:48:55.484Z,31.00
2022-12-10T16:51:31.116Z,31.90
2022-12-10T16:54:04.639Z,23.90
2022-12-10T16:56:36.842Z,29.90
2022-12-10T16:59:09.127Z,26.40
2022-12-10T17:01:41.507Z,24.50
2022-12-10T17:04:14.031Z,37.20
2022-12-10T17:06:46.461Z,24.50
2022-12-10T17:09:18.660Z,30.00
2022-12-10T17:11:53.083Z,27.10
2022-12-10T17:14:28.097Z,31.90
2022-12-10T17:17:04.012Z,30.40
2022-12-10T17:19:38.671Z,49.50
2022-12-10T17:22:11.641Z,37.00
2022-12-10T17:24:43.899Z,33.80
2022-12-10T17:27:19.411Z,35.10
2022-12-10T17:29:54.526Z,35.40
2022-12-10T17:32:27.051Z,30.00
2022-12-10T17:34:59.785Z,31.60
2022-12-10T17:37:35.176Z,31.80
2022-12-10T17:40:16.001Z,26.30
2022-12-10T17:42:48.504Z,35.00
2022-12-10T17:45:22.917Z,35.80
2022-12-10T17:47:55.347Z,37.50
2022-12-10T17:50:33.989Z,38.50
2022-12-10T17:53:10.692Z,36.10
2022-12-10T17:55:48.180Z,34.40
2022-12-10T17:58:24.294Z,37.30
2022-12-10T18:00:57.231Z,35.70
2022-12-10T18:03:32.364Z,45.70
2022-12-10T18:06:04.763Z,38.40
2022-12-10T18:08:36.987Z,39.60
2022-12-10T18:11:11.046Z,39.70
2022-12-10T18:13:47.627Z,37.60
2022-12-10T18:16:22.210Z,35.60
2022-12-10T18:18:54.504Z,35.50
2022-12-10T18:21:27.625Z,32.80
2022-12-10T18:24:00.268Z,37.90
2022-12-10T18:26:38.196Z,41.10
2022-12-10T18:29:15.019Z,37.40
2022-12-10T18:31:48.079Z,42.00
2022-12-10T18:34:20.347Z,29.40
2022-12-10T18:36:52.798Z,44.20
2022-12-10T18:39:27.545Z,29.90
2022-12-10T18:42:00.375Z,46.90
2022-12-10T18:44:33.206Z,33.80
2022-12-10T18:47:07.223Z,33.10
2022-12-10T18:49:40.313Z,37.70
2022-12-10T18:52:13.464Z,36.80
2022-12-10T18:54:45.789Z,29.50
2022-12-10T18:57:33.987Z,31.90
2022-12-10T19:00:12.188Z,36.00
2022-12-10T19:02:44.536Z,35.20
2022-12-10T19:05:18.226Z,38.90
2022-12-10T19:07:51.041Z,37.60
2022-12-10T19:10:25.642Z,33.00
2022-12-10T19:12:57.905Z,30.20
2022-12-10T19:15:30.715Z,34.40
2022-12-10T19:18:04.421Z,30.80
2022-12-10T19:20:36.970Z,41.70
2022-12-10T19:23:09.306Z,41.10
2022-12-10T19:25:41.595Z,33.90
2022-12-10T19:28:19.326Z,34.80
2022-12-10T19:30:52.838Z,32.50
2022-12-10T19:33:25.083Z,37.00
2022-12-10T19:35:57.336Z,37.00
2022-12-10T19:38:29.694Z,36.20
2022-12-10T19:41:01.917Z,41.00
2022-12-10T19:43:34.111Z,34.20
2022-12-10T19:46:13.921Z,43.40
2022-12-10T19:48:46.835Z,42.40
2022-12-10T19:51:19.511Z,41.10
2022-12-10T19:53:55.582Z,50.00
2022-12-10T19:56:30.755Z,40.90
2022-12-10T19:59:08.651Z,51.00
2022-12-10T20:01:44.750Z,41.70
2022-12-10T20:04:18.821Z,47.30
2022-12-10T20:06:51.941Z,48.90
2022-12-10T20:09:27.417Z,47.40
2022-12-10T20:11:59.773Z,47.90
2022-12-10T20:14:32.059Z,55.00
2022-12-10T20:17:04.435Z,46.10
2022-12-10T20:19:36.864Z,54.20
2022-12-10T20:22:09.632Z,49.20
2022-12-10T20:24:42.623Z,45.00
2022-12-10T20:27:16.923Z,48.20
2022-12-10T20:29:49.821Z,46.50
2022-12-10T20:32:22.407Z,37.80
2022-12-10T20:34:54.667Z,44.90
2022-12-10T20:37:27.661Z,45.80
2022-12-10T20:40:29.624Z,42.40
2022-12-10T20:42:52.259Z,36.80
2022-12-10T20:45:24.623Z,34.00
2022-12-10T20:47:57.005Z,37.70
2022-12-10T20:50:32.170Z,34.10
2022-12-10T20:53:04.915Z,37.60
2022-12-10T20:55:37.396Z,36.80
2022-12-10T20:58:12.440Z,35.90
2022-12-10T21:00:44.872Z,32.10
2022-12-10T21:03:17.415Z,40.50
2022-12-10T21:05:50.876Z,28.90
2022-12-10T21:08:23.570Z,28.90
2022-12-10T21:10:56.861Z,32.00
2022-12-10T21:13:31.016Z,34.30
2022-12-10T21:16:05.416Z,30.90
2022-12-10T21:18:37.953Z,40.00
2022-12-10T21:21:12.927Z,44.80
2022-12-10T21:23:45.386Z,33.20
2022-12-10T21:26:18.062Z,34.40
2022-12-10T21:28:50.431Z,29.10
2022-12-10T21:31:25.426Z,34.10
2022-12-10T21:33:57.789Z,35.90
2022-12-10T21:36:30.583Z,36.00
2022-12-10T21:39:03.080Z,36.40
2022-12-10T21:41:52.683Z,33.60
2022-12-10T21:44:24.983Z,42.40
2022-12-10T21:46:57.251Z,36.30
2022-12-10T21:49:29.501Z,38.40
2022-12-10T21:52:01.996Z,37.50
2022-12-10T21:54:34.258Z,34.90
2022-12-10T21:57:07.148Z,34.90
2022-12-10T21:59:39.479Z,42.50
2022-12-10T22:02:13.600Z,37.80
2022-12-10T22:04:45.919Z,36.60
2022-12-10T22:07:18.548Z,34.00
2022-12-10T22:09:50.928Z,30.20
2022-12-10T22:12:23.239Z,37.40
2022-12-10T22:14:55.486Z,39.30
2022-12-10T22:17:28.327Z,35.50
2022-12-10T22:20:00.593Z,49.30
2022-12-10T22:22:32.911Z,68.80
2022-12-10T22:25:05.439Z,63.60
2022-12-10T22:27:37.658Z,72.10
2022-12-10T22:30:12.464Z,38.90
2022-12-10T22:32:45.490Z,36.30
2022-12-10T22:35:17.698Z,39.40
2022-12-10T22:37:52.222Z,35.80
2022-12-10T22:40:24.428Z,31.20
2022-12-10T22:43:10.285Z,31.60
2022-12-10T22:45:47.284Z,41.20
2022-12-10T22:48:19.684Z,34.80
2022-12-10T22:50:51.958Z,36.60
2022-12-10T22:53:24.184Z,36.80
2022-12-10T22:56:01.761Z,28.90
2022-12-10T22:58:34.153Z,31.70
2022-12-10T23:01:07.096Z,30.60
2022-12-10T23:03:39.356Z,39.80
2022-12-10T23:06:11.911Z,41.10
2022-12-10T23:08:44.378Z,59.10
2022-12-10T23:11:17.492Z,113.60
2022-12-10T23:13:49.770Z,56.40
2022-12-10T23:16:22.134Z,35.90
2022-12-10T23:18:54.470Z,32.90
2022-12-10T23:21:28.454Z,35.30
2022-12-10T23:24:00.685Z,32.40
2022-12-10T23:26:32.980Z,32.30
2022-12-10T23:29:06.003Z,38.40
2022-12-10T23:31:38.479Z,34.90
2022-12-10T23:34:10.749Z,37.20
2022-12-10T23:36:42.948Z,30.20
2022-12-10T23:39:15.712Z,32.00
2022-12-10T23:41:47.952Z,35.90
2022-12-10T23:44:20.196Z,47.20
2022-12-10T23:46:52.460Z,33.10
2022-12-10T23:49:24.785Z,32.50
2022-12-10T23:51:57.000Z,31.90
2022-12-10T23:54:29.316Z,29.60
2022-12-10T23:57:01.544Z,34.70
2022-12-10T23:59:33.833Z,28.30
